sensor_id;sensor_type;location;lat;lon;timestamp;P1;durP1;ratioP1;P2;durP2;ratioP2
6551;SDS011;3309;48.708;9.290;2022-10-29T00:01:53;0.70;;;0.70;;
6551;SDS011;3309;48.708;9.290;2022-10-29T00:04:18;0.60;;;0.60;;
6551;SDS011;3309;48.708;9.290;2022-10-29T00:06:44;0.50;;;0.50;;
6551;SDS011;3309;48.708;9.290;2022-10-29T00:09:11;0.57;;;0.57;;
6551;SDS011;3309;48.708;9.290;2022-10-29T00:11:37;0.60;;;0.60;;
6551;SDS011;3309;48.708;9.290;2022-10-29T00:14:02;0.60;;;0.60;;
6551;SDS011;3309;48.708;9.290;2022-10-29T00:16:28;0.67;;;0.67;;
6551;SDS011;3309;48.708;9.290;2022-10-29T00:18:59;0.50;;;0.50;;
6551;SDS011;3309;48.708;9.290;2022-10-29T00:21:24;0.60;;;0.60;;
6551;SDS011;3309;48.708;9.290;2022-10-29T00:23:51;0.50;;;0.50;;
6551;SDS011;3309;48.708;9.290;2022-10-29T00:26:18;0.60;;;0.60;;
6551;SDS011;3309;48.708;9.290;2022-10-29T00:28:45;0.60;;;0.60;;
6551;SDS011;3309;48.708;9.290;2022-10-29T00:31:14;0.60;;;0.60;;
6551;SDS011;3309;48.708;9.290;2022-10-29T00:33:41;0.50;;;0.50;;
6551;SDS011;3309;48.708;9.290;2022-10-29T00:36:17;0.60;;;0.60;;
6551;SDS011;3309;48.708;9.290;2022-10-29T00:38:46;0.57;;;0.57;;
6551;SDS011;3309;48.708;9.290;2022-10-29T00:41:13;0.53;;;0.53;;
6551;SDS011;3309;48.708;9.290;2022-10-29T00:43:42;0.50;;;0.50;;
6551;SDS011;3309;48.708;9.290;2022-10-29T00:46:14;0.70;;;0.70;;
6551;SDS011;3309;48.708;9.290;2022-10-29T00:48:53;0.60;;;0.60;;
6551;SDS011;3309;48.708;9.290;2022-10-29T00:51:20;0.43;;;0.43;;
6551;SDS011;3309;48.708;9.290;2022-10-29T00:53:47;0.60;;;0.60;;
6551;SDS011;3309;48.708;9.290;2022-10-29T00:56:18;0.50;;;0.50;;
6551;SDS011;3309;48.708;9.290;2022-10-29T00:58:45;0.60;;;0.60;;
6551;SDS011;3309;48.708;9.290;2022-10-29T01:01:11;0.57;;;0.57;;
6551;SDS011;3309;48.708;9.290;2022-10-29T01:03:37;0.60;;;0.60;;
6551;SDS011;3309;48.708;9.290;2022-10-29T01:06:03;0.50;;;0.50;;
6551;SDS011;3309;48.708;9.290;2022-10-29T01:08:30;0.40;;;0.40;;
6551;SDS011;3309;48.708;9.290;2022-10-29T01:10:58;0.40;;;0.40;;
6551;SDS011;3309;48.708;9.290;2022-10-29T01:13:53;0.50;;;0.50;;
6551;SDS011;3309;48.708;9.290;2022-10-29T01:16:34;0.60;;;0.60;;
6551;SDS011;3309;48.708;9.290;2022-10-29T01:19:13;0.70;;;0.70;;
6551;SDS011;3309;48.708;9.290;2022-10-29T01:21:52;0.70;;;0.70;;
6551;SDS011;3309;48.708;9.290;2022-10-29T01:30:21;0.70;;;0.70;;
6551;SDS011;3309;48.708;9.290;2022-10-29T01:36:22;0.70;;;0.70;;
6551;SDS011;3309;48.708;9.290;2022-10-29T01:39:00;0.57;;;0.57;;
6551;SDS011;3309;48.708;9.290;2022-10-29T01:41:39;0.40;;;0.40;;
6551;SDS011;3309;48.708;9.290;2022-10-29T01:46:56;0.50;;;0.50;;
6551;SDS011;3309;48.708;9.290;2022-10-29T01:49:27;0.60;;;0.60;;
6551;SDS011;3309;48.708;9.290;2022-10-29T01:52:01;0.60;;;0.60;;
6551;SDS011;3309;48.708;9.290;2022-10-29T01:54:28;0.50;;;0.50;;
6551;SDS011;3309;48.708;9.290;2022-10-29T01:56:54;0.63;;;0.63;;
6551;SDS011;3309;48.708;9.290;2022-10-29T01:59:21;0.60;;;0.60;;
6551;SDS011;3309;48.708;9.290;2022-10-29T02:01:52;0.50;;;0.50;;
6551;SDS011;3309;48.708;9.290;2022-10-29T02:04:48;0.30;;;0.30;;
6551;SDS011;3309;48.708;9.290;2022-10-29T02:07:29;0.70;;;0.70;;
6551;SDS011;3309;48.708;9.290;2022-10-29T02:10:29;0.50;;;0.50;;
6551;SDS011;3309;48.708;9.290;2022-10-29T02:12:59;0.60;;;0.60;;
6551;SDS011;3309;48.708;9.290;2022-10-29T02:15:32;0.57;;;0.57;;
6551;SDS011;3309;48.708;9.290;2022-10-29T02:18:01;0.60;;;0.60;;
6551;SDS011;3309;48.708;9.290;2022-10-29T02:20:29;0.67;;;0.67;;
6551;SDS011;3309;48.708;9.290;2022-10-29T02:22:54;0.50;;;0.50;;
6551;SDS011;3309;48.708;9.290;2022-10-29T02:25:20;0.60;;;0.60;;
6551;SDS011;3309;48.708;9.290;2022-10-29T02:27:46;0.60;;;0.60;;
6551;SDS011;3309;48.708;9.290;2022-10-29T02:30:12;0.60;;;0.60;;
6551;SDS011;3309;48.708;9.290;2022-10-29T02:32:38;0.53;;;0.53;;
6551;SDS011;3309;48.708;9.290;2022-10-29T02:35:04;0.60;;;0.60;;
6551;SDS011;3309;48.708;9.290;2022-10-29T02:37:30;0.63;;;0.63;;
6551;SDS011;3309;48.708;9.290;2022-10-29T02:39:55;0.40;;;0.40;;
6551;SDS011;3309;48.708;9.290;2022-10-29T02:42:21;0.50;;;0.50;;
6551;SDS011;3309;48.708;9.290;2022-10-29T02:44:47;0.50;;;0.50;;
6551;SDS011;3309;48.708;9.290;2022-10-29T02:47:12;0.57;;;0.57;;
6551;SDS011;3309;48.708;9.290;2022-10-29T02:49:38;0.50;;;0.50;;
6551;SDS011;3309;48.708;9.290;2022-10-29T02:52:03;0.50;;;0.50;;
6551;SDS011;3309;48.708;9.290;2022-10-29T02:54:29;0.60;;;0.60;;
6551;SDS011;3309;48.708;9.290;2022-10-29T02:56:55;0.47;;;0.47;;
6551;SDS011;3309;48.708;9.290;2022-10-29T02:59:20;0.60;;;0.60;;
6551;SDS011;3309;48.708;9.290;2022-10-29T03:01:46;0.50;;;0.50;;
6551;SDS011;3309;48.708;9.290;2022-10-29T03:04:11;0.43;;;0.43;;
6551;SDS011;3309;48.708;9.290;2022-10-29T03:06:37;0.50;;;0.50;;
6551;SDS011;3309;48.708;9.290;2022-10-29T03:09:03;0.50;;;0.50;;
6551;SDS011;3309;48.708;9.290;2022-10-29T03:11:29;0.50;;;0.50;;
6551;SDS011;3309;48.708;9.290;2022-10-29T03:13:54;0.50;;;0.50;;
6551;SDS011;3309;48.708;9.290;2022-10-29T03:16:20;0.50;;;0.50;;
6551;SDS011;3309;48.708;9.290;2022-10-29T03:18:45;0.53;;;0.53;;
6551;SDS011;3309;48.708;9.290;2022-10-29T03:21:11;0.50;;;0.50;;
6551;SDS011;3309;48.708;9.290;2022-10-29T03:23:36;0.60;;;0.60;;
6551;SDS011;3309;48.708;9.290;2022-10-29T03:26:02;0.40;;;0.40;;
6551;SDS011;3309;48.708;9.290;2022-10-29T03:28:28;0.60;;;0.60;;
6551;SDS011;3309;48.708;9.290;2022-10-29T03:30:54;0.60;;;0.60;;
6551;SDS011;3309;48.708;9.290;2022-10-29T03:33:23;0.50;;;0.50;;
6551;SDS011;3309;48.708;9.290;2022-10-29T03:35:58;0.60;;;0.60;;
6551;SDS011;3309;48.708;9.290;2022-10-29T03:38:25;0.70;;;0.70;;
6551;SDS011;3309;48.708;9.290;2022-10-29T03:40:50;0.70;;;0.70;;
6551;SDS011;3309;48.708;9.290;2022-10-29T03:43:16;0.60;;;0.60;;
6551;SDS011;3309;48.708;9.290;2022-10-29T03:45:42;0.50;;;0.50;;
6551;SDS011;3309;48.708;9.290;2022-10-29T03:48:08;0.50;;;0.50;;
6551;SDS011;3309;48.708;9.290;2022-10-29T03:50:33;0.60;;;0.60;;
6551;SDS011;3309;48.708;9.290;2022-10-29T03:52:59;0.50;;;0.50;;
6551;SDS011;3309;48.708;9.290;2022-10-29T03:55:24;0.60;;;0.60;;
6551;SDS011;3309;48.708;9.290;2022-10-29T03:57:53;0.60;;;0.60;;
6551;SDS011;3309;48.708;9.290;2022-10-29T04:00:19;0.40;;;0.40;;
6551;SDS011;3309;48.708;9.290;2022-10-29T04:02:44;0.50;;;0.50;;
6551;SDS011;3309;48.708;9.290;2022-10-29T04:05:10;0.60;;;0.60;;
6551;SDS011;3309;48.708;9.290;2022-10-29T04:07:35;0.50;;;0.50;;
6551;SDS011;3309;48.708;9.290;2022-10-29T04:10:01;0.50;;;0.50;;
6551;SDS011;3309;48.708;9.290;2022-10-29T04:12:26;0.50;;;0.50;;
6551;SDS011;3309;48.708;9.290;2022-10-29T04:14:52;0.40;;;0.40;;
6551;SDS011;3309;48.708;9.290;2022-10-29T04:17:17;0.60;;;0.60;;
6551;SDS011;3309;48.708;9.290;2022-10-29T04:19:43;0.50;;;0.50;;
6551;SDS011;3309;48.708;9.290;2022-10-29T04:22:08;0.53;;;0.53;;
6551;SDS011;3309;48.708;9.290;2022-10-29T04:24:34;0.40;;;0.40;;
6551;SDS011;3309;48.708;9.290;2022-10-29T04:26:59;0.50;;;0.50;;
6551;SDS011;3309;48.708;9.290;2022-10-29T04:29:25;0.60;;;0.60;;
6551;SDS011;3309;48.708;9.290;2022-10-29T04:31:50;0.53;;;0.53;;
6551;SDS011;3309;48.708;9.290;2022-10-29T04:34:16;0.50;;;0.50;;
6551;SDS011;3309;48.708;9.290;2022-10-29T04:36:41;0.60;;;0.60;;
6551;SDS011;3309;48.708;9.290;2022-10-29T04:39:07;0.40;;;0.40;;
6551;SDS011;3309;48.708;9.290;2022-10-29T04:41:32;0.50;;;0.50;;
6551;SDS011;3309;48.708;9.290;2022-10-29T04:43:59;0.40;;;0.40;;
6551;SDS011;3309;48.708;9.290;2022-10-29T04:46:25;0.50;;;0.50;;
6551;SDS011;3309;48.708;9.290;2022-10-29T04:48:51;0.50;;;0.50;;
6551;SDS011;3309;48.708;9.290;2022-10-29T04:51:17;0.50;;;0.50;;
6551;SDS011;3309;48.708;9.290;2022-10-29T04:53:47;0.50;;;0.50;;
6551;SDS011;3309;48.708;9.290;2022-10-29T04:56:13;0.40;;;0.40;;
6551;SDS011;3309;48.708;9.290;2022-10-29T04:58:38;0.50;;;0.50;;
6551;SDS011;3309;48.708;9.290;2022-10-29T05:01:04;0.50;;;0.50;;
6551;SDS011;3309;48.708;9.290;2022-10-29T05:03:30;0.40;;;0.40;;
6551;SDS011;3309;48.708;9.290;2022-10-29T05:05:56;0.50;;;0.50;;
6551;SDS011;3309;48.708;9.290;2022-10-29T05:08:22;0.50;;;0.50;;
6551;SDS011;3309;48.708;9.290;2022-10-29T05:10:48;0.57;;;0.57;;
6551;SDS011;3309;48.708;9.290;2022-10-29T05:13:14;0.50;;;0.50;;
6551;SDS011;3309;48.708;9.290;2022-10-29T05:15:39;0.50;;;0.50;;
6551;SDS011;3309;48.708;9.290;2022-10-29T05:18:05;0.50;;;0.50;;
6551;SDS011;3309;48.708;9.290;2022-10-29T05:20:31;0.50;;;0.50;;
6551;SDS011;3309;48.708;9.290;2022-10-29T05:23:04;0.60;;;0.60;;
6551;SDS011;3309;48.708;9.290;2022-10-29T05:25:32;0.60;;;0.60;;
6551;SDS011;3309;48.708;9.290;2022-10-29T05:28:00;0.50;;;0.50;;
6551;SDS011;3309;48.708;9.290;2022-10-29T05:30:26;0.57;;;0.57;;
6551;SDS011;3309;48.708;9.290;2022-10-29T05:32:52;0.60;;;0.60;;
6551;SDS011;3309;48.708;9.290;2022-10-29T05:35:17;0.60;;;0.60;;
6551;SDS011;3309;48.708;9.290;2022-10-29T05:37:45;0.60;;;0.60;;
6551;SDS011;3309;48.708;9.290;2022-10-29T05:40:19;0.60;;;0.60;;
6551;SDS011;3309;48.708;9.290;2022-10-29T05:42:45;0.60;;;0.60;;
6551;SDS011;3309;48.708;9.290;2022-10-29T05:45:11;0.53;;;0.53;;
6551;SDS011;3309;48.708;9.290;2022-10-29T05:47:37;0.50;;;0.50;;
6551;SDS011;3309;48.708;9.290;2022-10-29T05:50:03;0.60;;;0.60;;
6551;SDS011;3309;48.708;9.290;2022-10-29T05:52:29;0.60;;;0.60;;
6551;SDS011;3309;48.708;9.290;2022-10-29T05:54:54;0.57;;;0.57;;
6551;SDS011;3309;48.708;9.290;2022-10-29T05:57:20;0.50;;;0.50;;
6551;SDS011;3309;48.708;9.290;2022-10-29T05:59:45;0.50;;;0.50;;
6551;SDS011;3309;48.708;9.290;2022-10-29T06:02:11;0.60;;;0.60;;
6551;SDS011;3309;48.708;9.290;2022-10-29T06:04:36;0.60;;;0.60;;
6551;SDS011;3309;48.708;9.290;2022-10-29T06:07:02;0.50;;;0.50;;
6551;SDS011;3309;48.708;9.290;2022-10-29T06:09:28;0.57;;;0.57;;
6551;SDS011;3309;48.708;9.290;2022-10-29T06:11:54;0.60;;;0.60;;
6551;SDS011;3309;48.708;9.290;2022-10-29T06:14:20;0.63;;;0.63;;
6551;SDS011;3309;48.708;9.290;2022-10-29T06:16:45;0.70;;;0.70;;
6551;SDS011;3309;48.708;9.290;2022-10-29T06:19:11;0.63;;;0.63;;
6551;SDS011;3309;48.708;9.290;2022-10-29T06:21:36;0.50;;;0.50;;
6551;SDS011;3309;48.708;9.290;2022-10-29T06:24:02;0.50;;;0.50;;
6551;SDS011;3309;48.708;9.290;2022-10-29T06:26:28;0.60;;;0.60;;
6551;SDS011;3309;48.708;9.290;2022-10-29T06:28:53;0.60;;;0.60;;
6551;SDS011;3309;48.708;9.290;2022-10-29T06:31:19;0.60;;;0.60;;
6551;SDS011;3309;48.708;9.290;2022-10-29T06:33:44;0.60;;;0.60;;
6551;SDS011;3309;48.708;9.290;2022-10-29T06:36:10;0.50;;;0.50;;
6551;SDS011;3309;48.708;9.290;2022-10-29T06:38:35;0.60;;;0.60;;
6551;SDS011;3309;48.708;9.290;2022-10-29T06:41:01;0.60;;;0.60;;
6551;SDS011;3309;48.708;9.290;2022-10-29T06:43:27;0.60;;;0.60;;
6551;SDS011;3309;48.708;9.290;2022-10-29T06:45:52;0.60;;;0.60;;
6551;SDS011;3309;48.708;9.290;2022-10-29T06:48:18;0.47;;;0.47;;
6551;SDS011;3309;48.708;9.290;2022-10-29T06:50:43;0.63;;;0.63;;
6551;SDS011;3309;48.708;9.290;2022-10-29T06:53:10;0.57;;;0.57;;
6551;SDS011;3309;48.708;9.290;2022-10-29T06:55:37;0.40;;;0.40;;
6551;SDS011;3309;48.708;9.290;2022-10-29T06:58:07;0.40;;;0.40;;
6551;SDS011;3309;48.708;9.290;2022-10-29T07:00:36;0.60;;;0.60;;
6551;SDS011;3309;48.708;9.290;2022-10-29T07:03:01;0.40;;;0.40;;
6551;SDS011;3309;48.708;9.290;2022-10-29T07:05:28;0.50;;;0.50;;
6551;SDS011;3309;48.708;9.290;2022-10-29T07:07:55;0.47;;;0.47;;
6551;SDS011;3309;48.708;9.290;2022-10-29T07:10:21;0.40;;;0.40;;
6551;SDS011;3309;48.708;9.290;2022-10-29T07:12:48;0.43;;;0.43;;
6551;SDS011;3309;48.708;9.290;2022-10-29T07:15:13;0.40;;;0.40;;
6551;SDS011;3309;48.708;9.290;2022-10-29T07:17:39;0.50;;;0.50;;
6551;SDS011;3309;48.708;9.290;2022-10-29T07:20:05;0.30;;;0.30;;
6551;SDS011;3309;48.708;9.290;2022-10-29T07:22:32;0.30;;;0.30;;
6551;SDS011;3309;48.708;9.290;2022-10-29T07:24:58;0.30;;;0.30;;
6551;SDS011;3309;48.708;9.290;2022-10-29T07:27:24;0.33;;;0.33;;
6551;SDS011;3309;48.708;9.290;2022-10-29T07:29:49;0.30;;;0.30;;
6551;SDS011;3309;48.708;9.290;2022-10-29T07:32:15;0.30;;;0.30;;
6551;SDS011;3309;48.708;9.290;2022-10-29T07:34:40;0.30;;;0.30;;
6551;SDS011;3309;48.708;9.290;2022-10-29T07:37:06;0.30;;;0.30;;
6551;SDS011;3309;48.708;9.290;2022-10-29T07:39:31;0.30;;;0.30;;
6551;SDS011;3309;48.708;9.290;2022-10-29T07:41:57;0.30;;;0.30;;
6551;SDS011;3309;48.708;9.290;2022-10-29T07:44:22;0.40;;;0.40;;
6551;SDS011;3309;48.708;9.290;2022-10-29T07:46:48;0.30;;;0.30;;
6551;SDS011;3309;48.708;9.290;2022-10-29T07:49:13;0.20;;;0.20;;
6551;SDS011;3309;48.708;9.290;2022-10-29T07:51:39;0.30;;;0.30;;
6551;SDS011;3309;48.708;9.290;2022-10-29T07:54:05;0.40;;;0.40;;
6551;SDS011;3309;48.708;9.290;2022-10-29T07:56:31;0.30;;;0.30;;
6551;SDS011;3309;48.708;9.290;2022-10-29T07:58:56;0.40;;;0.40;;
6551;SDS011;3309;48.708;9.290;2022-10-29T08:01:22;0.30;;;0.30;;
6551;SDS011;3309;48.708;9.290;2022-10-29T08:03:50;0.30;;;0.30;;
6551;SDS011;3309;48.708;9.290;2022-10-29T08:06:16;0.40;;;0.40;;
6551;SDS011;3309;48.708;9.290;2022-10-29T08:08:42;0.50;;;0.50;;
6551;SDS011;3309;48.708;9.290;2022-10-29T08:11:07;0.50;;;0.50;;
6551;SDS011;3309;48.708;9.290;2022-10-29T08:13:33;0.43;;;0.43;;
6551;SDS011;3309;48.708;9.290;2022-10-29T08:15:58;0.60;;;0.60;;
6551;SDS011;3309;48.708;9.290;2022-10-29T08:18:24;0.60;;;0.60;;
6551;SDS011;3309;48.708;9.290;2022-10-29T08:20:50;0.60;;;0.60;;
6551;SDS011;3309;48.708;9.290;2022-10-29T08:23:15;0.60;;;0.60;;
6551;SDS011;3309;48.708;9.290;2022-10-29T08:25:41;0.50;;;0.50;;
6551;SDS011;3309;48.708;9.290;2022-10-29T08:28:11;0.60;;;0.60;;
6551;SDS011;3309;48.708;9.290;2022-10-29T08:30:38;0.50;;;0.50;;
6551;SDS011;3309;48.708;9.290;2022-10-29T08:33:05;0.60;;;0.60;;
6551;SDS011;3309;48.708;9.290;2022-10-29T08:35:31;0.73;;;0.73;;
6551;SDS011;3309;48.708;9.290;2022-10-29T08:37:58;0.60;;;0.60;;
6551;SDS011;3309;48.708;9.290;2022-10-29T08:46:00;0.60;;;0.60;;
6551;SDS011;3309;48.708;9.290;2022-10-29T08:53:51;0.40;;;0.40;;
6551;SDS011;3309;48.708;9.290;2022-10-29T08:56:29;0.40;;;0.40;;
6551;SDS011;3309;48.708;9.290;2022-10-29T08:59:02;0.50;;;0.50;;
6551;SDS011;3309;48.708;9.290;2022-10-29T09:01:37;0.32;;;0.32;;
6551;SDS011;3309;48.708;9.290;2022-10-29T09:04:03;0.40;;;0.40;;
6551;SDS011;3309;48.708;9.290;2022-10-29T09:09:39;0.30;;;0.30;;
6551;SDS011;3309;48.708;9.290;2022-10-29T09:12:28;0.40;;;0.40;;
6551;SDS011;3309;48.708;9.290;2022-10-29T09:18:34;0.60;;;0.60;;
6551;SDS011;3309;48.708;9.290;2022-10-29T09:22:09;0.47;;;0.47;;
6551;SDS011;3309;48.708;9.290;2022-10-29T09:27:15;0.30;;;0.30;;
6551;SDS011;3309;48.708;9.290;2022-10-29T09:32:32;0.45;;;0.45;;
6551;SDS011;3309;48.708;9.290;2022-10-29T09:35:05;0.40;;;0.40;;
6551;SDS011;3309;48.708;9.290;2022-10-29T09:37:47;0.50;;;0.50;;
6551;SDS011;3309;48.708;9.290;2022-10-29T09:40:17;0.50;;;0.50;;
6551;SDS011;3309;48.708;9.290;2022-10-29T09:42:45;0.50;;;0.50;;
6551;SDS011;3309;48.708;9.290;2022-10-29T09:45:13;0.50;;;0.50;;
6551;SDS011;3309;48.708;9.290;2022-10-29T09:50:13;0.40;;;0.40;;
6551;SDS011;3309;48.708;9.290;2022-10-29T09:52:52;0.60;;;0.60;;
6551;SDS011;3309;48.708;9.290;2022-10-29T09:57:51;0.60;;;0.60;;
6551;SDS011;3309;48.708;9.290;2022-10-29T10:00:19;0.53;;;0.53;;
6551;SDS011;3309;48.708;9.290;2022-10-29T10:05:33;0.60;;;0.60;;
6551;SDS011;3309;48.708;9.290;2022-10-29T10:10:27;0.52;;;0.52;;
6551;SDS011;3309;48.708;9.290;2022-10-29T10:12:53;0.70;;;0.70;;
6551;SDS011;3309;48.708;9.290;2022-10-29T10:15:31;0.43;;;0.43;;
6551;SDS011;3309;48.708;9.290;2022-10-29T10:20:47;0.52;;;0.52;;
6551;SDS011;3309;48.708;9.290;2022-10-29T10:23:42;0.40;;;0.40;;
6551;SDS011;3309;48.708;9.290;2022-10-29T10:26:31;0.30;;;0.30;;
6551;SDS011;3309;48.708;9.290;2022-10-29T10:31:40;0.13;;;0.13;;
6551;SDS011;3309;48.708;9.290;2022-10-29T10:34:07;0.30;;;0.30;;
6551;SDS011;3309;48.708;9.290;2022-10-29T10:36:39;0.20;;;0.20;;
6551;SDS011;3309;48.708;9.290;2022-10-29T10:39:41;0.25;;;0.25;;
6551;SDS011;3309;48.708;9.290;2022-10-29T10:44:46;0.32;;;0.32;;
6551;SDS011;3309;48.708;9.290;2022-10-29T10:47:16;0.20;;;0.20;;
6551;SDS011;3309;48.708;9.290;2022-10-29T10:49:44;0.03;;;0.03;;
6551;SDS011;3309;48.708;9.290;2022-10-29T10:52:14;0.10;;;0.10;;
6551;SDS011;3309;48.708;9.290;2022-10-29T10:57:27;0.10;;;0.10;;
6551;SDS011;3309;48.708;9.290;2022-10-29T11:00:02;0.20;;;0.20;;
6551;SDS011;3309;48.708;9.290;2022-10-29T11:02:47;0.05;;;0.05;;
6551;SDS011;3309;48.708;9.290;2022-10-29T11:05:33;0.30;;;0.30;;
6551;SDS011;3309;48.708;9.290;2022-10-29T11:08:15;0.30;;;0.30;;
6551;SDS011;3309;48.708;9.290;2022-10-29T11:10:49;0.20;;;0.20;;
6551;SDS011;3309;48.708;9.290;2022-10-29T11:13:22;0.30;;;0.30;;
6551;SDS011;3309;48.708;9.290;2022-10-29T11:15:53;0.30;;;0.30;;
6551;SDS011;3309;48.708;9.290;2022-10-29T11:18:24;0.20;;;0.20;;
6551;SDS011;3309;48.708;9.290;2022-10-29T11:26:39;0.45;;;0.45;;
6551;SDS011;3309;48.708;9.290;2022-10-29T11:38:00;0.20;;;0.20;;
6551;SDS011;3309;48.708;9.290;2022-10-29T11:43:16;0.30;;;0.30;;
6551;SDS011;3309;48.708;9.290;2022-10-29T11:45:58;0.43;;;0.43;;
6551;SDS011;3309;48.708;9.290;2022-10-29T11:51:23;0.47;;;0.47;;
6551;SDS011;3309;48.708;9.290;2022-10-29T11:53:57;0.60;;;0.60;;
6551;SDS011;3309;48.708;9.290;2022-10-29T12:01:43;0.40;;;0.40;;
6551;SDS011;3309;48.708;9.290;2022-10-29T12:04:23;0.40;;;0.40;;
6551;SDS011;3309;48.708;9.290;2022-10-29T12:07:07;0.30;;;0.30;;
6551;SDS011;3309;48.708;9.290;2022-10-29T12:09:42;0.30;;;0.30;;
6551;SDS011;3309;48.708;9.290;2022-10-29T12:15:12;0.50;;;0.50;;
6551;SDS011;3309;48.708;9.290;2022-10-29T12:17:58;0.30;;;0.30;;
6551;SDS011;3309;48.708;9.290;2022-10-29T12:23:16;0.60;;;0.60;;
6551;SDS011;3309;48.708;9.290;2022-10-29T12:31:48;0.60;;;0.60;;
6551;SDS011;3309;48.708;9.290;2022-10-29T12:39:34;0.70;;;0.70;;
6551;SDS011;3309;48.708;9.290;2022-10-29T12:42:04;0.63;;;0.63;;
6551;SDS011;3309;48.708;9.290;2022-10-29T12:44:48;0.50;;;0.50;;
6551;SDS011;3309;48.708;9.290;2022-10-29T12:55:45;0.60;;;0.60;;
6551;SDS011;3309;48.708;9.290;2022-10-29T13:07:20;0.60;;;0.60;;
6551;SDS011;3309;48.708;9.290;2022-10-29T13:09:25;0.30;;;0.30;;
6551;SDS011;3309;48.708;9.290;2022-10-29T13:11:59;0.47;;;0.47;;
6551;SDS011;3309;48.708;9.290;2022-10-29T13:17:18;0.50;;;0.50;;
6551;SDS011;3309;48.708;9.290;2022-10-29T13:19:56;0.50;;;0.50;;
6551;SDS011;3309;48.708;9.290;2022-10-29T13:22:51;0.50;;;0.50;;
6551;SDS011;3309;48.708;9.290;2022-10-29T13:25:35;0.53;;;0.53;;
6551;SDS011;3309;48.708;9.290;2022-10-29T13:30:32;0.50;;;0.50;;
6551;SDS011;3309;48.708;9.290;2022-10-29T13:32:58;0.50;;;0.50;;
6551;SDS011;3309;48.708;9.290;2022-10-29T13:38:08;0.60;;;0.60;;
6551;SDS011;3309;48.708;9.290;2022-10-29T13:40:37;0.47;;;0.47;;
6551;SDS011;3309;48.708;9.290;2022-10-29T13:43:13;0.40;;;0.40;;
6551;SDS011;3309;48.708;9.290;2022-10-29T13:45:44;0.50;;;0.50;;
6551;SDS011;3309;48.708;9.290;2022-10-29T13:48:31;0.50;;;0.50;;
6551;SDS011;3309;48.708;9.290;2022-10-29T13:51:01;0.50;;;0.50;;
6551;SDS011;3309;48.708;9.290;2022-10-29T13:53:38;0.50;;;0.50;;
6551;SDS011;3309;48.708;9.290;2022-10-29T13:56:27;0.40;;;0.40;;
6551;SDS011;3309;48.708;9.290;2022-10-29T13:59:00;0.50;;;0.50;;
6551;SDS011;3309;48.708;9.290;2022-10-29T14:01:28;0.40;;;0.40;;
6551;SDS011;3309;48.708;9.290;2022-10-29T14:03:59;0.50;;;0.50;;
6551;SDS011;3309;48.708;9.290;2022-10-29T14:06:35;0.50;;;0.50;;
6551;SDS011;3309;48.708;9.290;2022-10-29T14:09:12;0.33;;;0.33;;
6551;SDS011;3309;48.708;9.290;2022-10-29T14:11:53;0.30;;;0.30;;
6551;SDS011;3309;48.708;9.290;2022-10-29T14:14:35;0.30;;;0.30;;
6551;SDS011;3309;48.708;9.290;2022-10-29T14:17:10;0.40;;;0.40;;
6551;SDS011;3309;48.708;9.290;2022-10-29T14:19:41;0.60;;;0.60;;
6551;SDS011;3309;48.708;9.290;2022-10-29T14:24:42;0.40;;;0.40;;
6551;SDS011;3309;48.708;9.290;2022-10-29T14:27:10;0.40;;;0.40;;
6551;SDS011;3309;48.708;9.290;2022-10-29T14:29:39;0.60;;;0.60;;
6551;SDS011;3309;48.708;9.290;2022-10-29T14:34:37;0.40;;;0.40;;
6551;SDS011;3309;48.708;9.290;2022-10-29T14:37:06;0.50;;;0.50;;
6551;SDS011;3309;48.708;9.290;2022-10-29T14:39:39;0.50;;;0.50;;
6551;SDS011;3309;48.708;9.290;2022-10-29T14:42:28;0.50;;;0.50;;
6551;SDS011;3309;48.708;9.290;2022-10-29T14:44:56;0.40;;;0.40;;
6551;SDS011;3309;48.708;9.290;2022-10-29T14:47:30;0.40;;;0.40;;
6551;SDS011;3309;48.708;9.290;2022-10-29T14:49:58;0.40;;;0.40;;
6551;SDS011;3309;48.708;9.290;2022-10-29T14:52:34;0.50;;;0.50;;
6551;SDS011;3309;48.708;9.290;2022-10-29T14:55:13;0.33;;;0.33;;
6551;SDS011;3309;48.708;9.290;2022-10-29T14:57:43;0.40;;;0.40;;
6551;SDS011;3309;48.708;9.290;2022-10-29T15:00:26;0.30;;;0.30;;
6551;SDS011;3309;48.708;9.290;2022-10-29T15:02:54;0.40;;;0.40;;
6551;SDS011;3309;48.708;9.290;2022-10-29T15:05:24;0.40;;;0.40;;
6551;SDS011;3309;48.708;9.290;2022-10-29T15:10:48;0.40;;;0.40;;
6551;SDS011;3309;48.708;9.290;2022-10-29T15:13:20;0.40;;;0.40;;
6551;SDS011;3309;48.708;9.290;2022-10-29T15:15:50;0.30;;;0.30;;
6551;SDS011;3309;48.708;9.290;2022-10-29T15:18:18;0.30;;;0.30;;
6551;SDS011;3309;48.708;9.290;2022-10-29T15:20:46;0.30;;;0.30;;
6551;SDS011;3309;48.708;9.290;2022-10-29T15:23:22;0.23;;;0.23;;
6551;SDS011;3309;48.708;9.290;2022-10-29T15:25:51;0.50;;;0.50;;
6551;SDS011;3309;48.708;9.290;2022-10-29T15:28:29;0.30;;;0.30;;
6551;SDS011;3309;48.708;9.290;2022-10-29T15:31:01;0.30;;;0.30;;
6551;SDS011;3309;48.708;9.290;2022-10-29T15:33:27;0.40;;;0.40;;
6551;SDS011;3309;48.708;9.290;2022-10-29T15:35:55;0.30;;;0.30;;
6551;SDS011;3309;48.708;9.290;2022-10-29T15:43:33;0.30;;;0.30;;
6551;SDS011;3309;48.708;9.290;2022-10-29T15:46:42;0.37;;;0.37;;
6551;SDS011;3309;48.708;9.290;2022-10-29T15:49:14;0.40;;;0.40;;
6551;SDS011;3309;48.708;9.290;2022-10-29T15:51:40;0.40;;;0.40;;
6551;SDS011;3309;48.708;9.290;2022-10-29T15:54:08;0.40;;;0.40;;
6551;SDS011;3309;48.708;9.290;2022-10-29T15:56:40;0.40;;;0.40;;
6551;SDS011;3309;48.708;9.290;2022-10-29T15:59:05;0.47;;;0.47;;
6551;SDS011;3309;48.708;9.290;2022-10-29T16:01:36;0.50;;;0.50;;
6551;SDS011;3309;48.708;9.290;2022-10-29T16:04:01;0.33;;;0.33;;
6551;SDS011;3309;48.708;9.290;2022-10-29T16:06:27;0.47;;;0.47;;
6551;SDS011;3309;48.708;9.290;2022-10-29T16:08:53;0.50;;;0.50;;
6551;SDS011;3309;48.708;9.290;2022-10-29T16:13:50;0.40;;;0.40;;
6551;SDS011;3309;48.708;9.290;2022-10-29T16:16:22;0.40;;;0.40;;
6551;SDS011;3309;48.708;9.290;2022-10-29T16:18:49;0.40;;;0.40;;
6551;SDS011;3309;48.708;9.290;2022-10-29T16:21:24;0.40;;;0.40;;
6551;SDS011;3309;48.708;9.290;2022-10-29T16:23:50;0.30;;;0.30;;
6551;SDS011;3309;48.708;9.290;2022-10-29T16:26:17;0.40;;;0.40;;
6551;SDS011;3309;48.708;9.290;2022-10-29T16:28:44;0.30;;;0.30;;
6551;SDS011;3309;48.708;9.290;2022-10-29T16:31:20;0.50;;;0.50;;
6551;SDS011;3309;48.708;9.290;2022-10-29T16:33:52;0.40;;;0.40;;
6551;SDS011;3309;48.708;9.290;2022-10-29T16:36:21;0.40;;;0.40;;
6551;SDS011;3309;48.708;9.290;2022-10-29T16:38:47;0.50;;;0.50;;
6551;SDS011;3309;48.708;9.290;2022-10-29T16:41:13;0.40;;;0.40;;
6551;SDS011;3309;48.708;9.290;2022-10-29T16:43:40;0.50;;;0.50;;
6551;SDS011;3309;48.708;9.290;2022-10-29T16:46:06;0.40;;;0.40;;
6551;SDS011;3309;48.708;9.290;2022-10-29T16:48:32;0.50;;;0.50;;
6551;SDS011;3309;48.708;9.290;2022-10-29T16:50:57;0.47;;;0.47;;
6551;SDS011;3309;48.708;9.290;2022-10-29T16:53:23;0.40;;;0.40;;
6551;SDS011;3309;48.708;9.290;2022-10-29T16:55:49;0.40;;;0.40;;
6551;SDS011;3309;48.708;9.290;2022-10-29T16:58:15;0.30;;;0.30;;
6551;SDS011;3309;48.708;9.290;2022-10-29T17:00:42;0.40;;;0.40;;
6551;SDS011;3309;48.708;9.290;2022-10-29T17:03:09;0.40;;;0.40;;
6551;SDS011;3309;48.708;9.290;2022-10-29T17:05:36;0.40;;;0.40;;
6551;SDS011;3309;48.708;9.290;2022-10-29T17:08:04;0.50;;;0.50;;
6551;SDS011;3309;48.708;9.290;2022-10-29T17:10:32;0.60;;;0.60;;
6551;SDS011;3309;48.708;9.290;2022-10-29T17:12:58;0.43;;;0.43;;
6551;SDS011;3309;48.708;9.290;2022-10-29T17:15:24;0.40;;;0.40;;
6551;SDS011;3309;48.708;9.290;2022-10-29T17:17:49;0.40;;;0.40;;
6551;SDS011;3309;48.708;9.290;2022-10-29T17:20:15;0.50;;;0.50;;
6551;SDS011;3309;48.708;9.290;2022-10-29T17:22:41;0.50;;;0.50;;
6551;SDS011;3309;48.708;9.290;2022-10-29T17:25:07;0.50;;;0.50;;
6551;SDS011;3309;48.708;9.290;2022-10-29T17:27:32;0.50;;;0.50;;
6551;SDS011;3309;48.708;9.290;2022-10-29T17:29:58;0.50;;;0.50;;
6551;SDS011;3309;48.708;9.290;2022-10-29T17:32:23;0.60;;;0.60;;
6551;SDS011;3309;48.708;9.290;2022-10-29T17:34:50;0.50;;;0.50;;
6551;SDS011;3309;48.708;9.290;2022-10-29T17:37:15;0.40;;;0.40;;
6551;SDS011;3309;48.708;9.290;2022-10-29T17:39:41;0.50;;;0.50;;
6551;SDS011;3309;48.708;9.290;2022-10-29T17:42:07;0.50;;;0.50;;
6551;SDS011;3309;48.708;9.290;2022-10-29T17:44:32;0.50;;;0.50;;
6551;SDS011;3309;48.708;9.290;2022-10-29T17:46:59;0.50;;;0.50;;
6551;SDS011;3309;48.708;9.290;2022-10-29T17:49:25;0.40;;;0.40;;